Terminal Aerodrome Forecast
Issued by NWS Dallas/Fort Worth, TX

Home | Current Version | Previous Version | Text Only | Print | Product List | Glossary On
Versions: 1 2 3 4 5 6 7 8 9 10 11 12 13 14 15 16 17 18 19 20 21 22 23 24 25 26 27 28 29 30 31 32 33 34 35 36
470
FTUS44 KFWD 190207 AAA
TAFACT
TAF AMD
KACT 190207Z 1902/1924 33008KT P6SM OVC025
     FM190400 VRB03KT 6SM BR OVC012
     FM190600 27004KT 4SM BR OVC007
     FM190900 24005KT 2SM BR OVC004
     FM191600 20010KT P6SM BKN250=

USA.gov is the U.S. government's official web portal to all federal, state and local government web resources and services.